createdAt,value
2023-05-25T00:01:35.969Z,27.40
2023-05-25T00:04:38.843Z,23.25
2023-05-25T00:07:41.698Z,28.80
2023-05-25T00:10:44.471Z,21.83
2023-05-25T00:13:47.590Z,21.15
2023-05-25T00:16:52.018Z,22.23
2023-05-25T00:19:58.478Z,21.33
2023-05-25T00:23:02.902Z,19.27
2023-05-25T00:26:06.185Z,17.92
2023-05-25T00:29:08.978Z,20.23
2023-05-25T00:32:11.744Z,23.67
2023-05-25T00:35:15.571Z,26.00
2023-05-25T00:38:19.056Z,19.85
2023-05-25T00:41:22.824Z,21.08
2023-05-25T00:44:25.564Z,24.13
2023-05-25T00:47:28.784Z,19.73
2023-05-25T00:50:38.179Z,21.90
2023-05-25T00:53:41.762Z,18.98
2023-05-25T00:56:52.017Z,19.10
2023-05-25T00:59:55.065Z,18.65
2023-05-25T01:03:00.238Z,21.70
2023-05-25T01:06:04.296Z,19.25
2023-05-25T01:09:09.419Z,18.77
2023-05-25T01:12:12.392Z,19.60
2023-05-25T01:15:16.767Z,18.25
2023-05-25T01:18:20.598Z,16.75
2023-05-25T01:21:48.336Z,22.45
2023-05-25T01:24:57.669Z,19.80
2023-05-25T01:28:12.281Z,18.67
2023-05-25T01:31:16.694Z,21.48
2023-05-25T01:34:20.711Z,22.30
2023-05-25T01:37:26.864Z,19.67
2023-05-25T01:40:30.002Z,18.30
2023-05-25T01:43:32.979Z,17.27
2023-05-25T01:46:40.256Z,19.42
2023-05-25T01:50:02.756Z,22.35
2023-05-25T01:53:10.814Z,18.13
2023-05-25T01:56:14.476Z,18.77
2023-05-25T01:59:21.085Z,23.45
2023-05-25T02:02:25.036Z,18.20
2023-05-25T02:05:28.562Z,20.10
2023-05-25T02:08:31.565Z,14.55
2023-05-25T02:11:36.077Z,16.00
2023-05-25T02:14:38.887Z,21.27
2023-05-25T02:17:41.625Z,21.00
2023-05-25T02:20:45.268Z,15.48
2023-05-25T02:23:48.364Z,15.75
2023-05-25T02:26:51.948Z,15.73
2023-05-25T02:29:54.881Z,15.57
2023-05-25T02:33:02.935Z,17.48
2023-05-25T02:36:06.304Z,15.13
2023-05-25T02:39:09.645Z,19.58
2023-05-25T02:42:14.308Z,15.07
2023-05-25T02:45:17.980Z,15.88
2023-05-25T02:48:22.422Z,14.77
2023-05-25T02:51:25.275Z,16.50
2023-05-25T02:54:28.200Z,16.92
2023-05-25T02:57:31.167Z,16.08
2023-05-25T03:00:35.446Z,14.82
2023-05-25T03:03:38.313Z,14.68
2023-05-25T03:06:41.709Z,17.10
2023-05-25T03:09:48.424Z,17.33
2023-05-25T03:12:51.789Z,14.07
2023-05-25T03:15:54.882Z,16.70
2023-05-25T03:18:59.303Z,10.88
2023-05-25T03:22:03.899Z,15.18
2023-05-25T03:25:08.714Z,15.27
2023-05-25T03:28:11.930Z,11.48
2023-05-25T03:31:14.854Z,11.15
2023-05-25T03:34:18.153Z,12.93
2023-05-25T03:37:21.356Z,15.45
2023-05-25T03:40:24.370Z,10.88
2023-05-25T03:43:27.214Z,13.07
2023-05-25T03:46:30.765Z,15.00
2023-05-25T03:49:34.005Z,11.70
2023-05-25T03:52:36.869Z,13.10
2023-05-25T03:55:40.079Z,12.10
2023-05-25T03:58:43.409Z,15.52
2023-05-25T04:01:46.405Z,9.95
2023-05-25T04:04:51.474Z,9.10
2023-05-25T04:07:54.215Z,11.75
2023-05-25T04:10:57.881Z,10.07
2023-05-25T04:14:00.890Z,12.30
2023-05-25T04:17:06.221Z,10.23
2023-05-25T04:20:10.332Z,8.32
2023-05-25T04:23:13.401Z,11.02
2023-05-25T04:26:18.679Z,13.13
2023-05-25T04:29:24.144Z,11.23
2023-05-25T04:32:46.234Z,7.68
2023-05-25T04:36:05.931Z,11.05
2023-05-25T04:39:09.952Z,11.82
2023-05-25T04:42:17.472Z,11.10
2023-05-25T04:45:21.843Z,9.95
2023-05-25T04:48:25.088Z,8.35
2023-05-25T04:51:28.751Z,11.88
2023-05-25T04:54:32.698Z,9.65
2023-05-25T04:57:38.422Z,7.88
2023-05-25T05:00:42.038Z,9.13
2023-05-25T05:03:46.164Z,10.80
2023-05-25T05:06:50.120Z,7.55
2023-05-25T05:09:56.016Z,9.82
2023-05-25T05:12:59.398Z,12.70
2023-05-25T05:16:03.020Z,10.10
2023-05-25T05:19:06.063Z,10.48
2023-05-25T05:22:10.162Z,9.50
2023-05-25T05:25:14.551Z,9.23
2023-05-25T05:28:17.517Z,8.00
2023-05-25T05:31:22.158Z,7.03
2023-05-25T05:34:25.081Z,14.65
2023-05-25T05:37:27.853Z,9.30
2023-05-25T05:40:30.805Z,6.05
2023-05-25T05:43:33.905Z,7.95
2023-05-25T05:46:37.767Z,10.55
2023-05-25T05:49:41.098Z,9.88
2023-05-25T05:52:44.133Z,8.80
2023-05-25T05:55:49.593Z,7.38
2023-05-25T05:58:55.035Z,8.95
2023-05-25T06:01:57.909Z,10.18
2023-05-25T06:05:02.103Z,7.90
2023-05-25T06:08:06.148Z,5.90
2023-05-25T06:11:12.679Z,9.50
2023-05-25T06:14:16.182Z,11.30
2023-05-25T06:17:19.591Z,9.70
2023-05-25T06:20:25.333Z,6.67
2023-05-25T06:23:28.332Z,7.70
2023-05-25T06:26:32.370Z,6.85
2023-05-25T06:29:35.379Z,8.00
2023-05-25T06:32:38.783Z,7.13
2023-05-25T06:35:42.617Z,10.38
2023-05-25T06:38:47.602Z,8.13
2023-05-25T06:41:51.426Z,16.05
2023-05-25T06:45:05.471Z,8.10
2023-05-25T06:48:08.792Z,7.40
2023-05-25T06:51:11.964Z,5.97
2023-05-25T06:54:15.949Z,6.50
2023-05-25T06:57:18.989Z,8.57
2023-05-25T07:00:22.168Z,7.03
2023-05-25T07:03:25.098Z,6.43
2023-05-25T07:06:28.077Z,9.50
2023-05-25T07:09:31.216Z,9.60
2023-05-25T07:12:34.040Z,7.03
2023-05-25T07:15:36.820Z,5.57
2023-05-25T07:18:45.427Z,10.68
2023-05-25T07:21:48.426Z,5.13
2023-05-25T07:24:51.467Z,6.68
2023-05-25T07:27:55.799Z,5.22
2023-05-25T07:30:59.194Z,5.38
2023-05-25T07:34:02.437Z,8.55
2023-05-25T07:37:05.302Z,7.15
2023-05-25T07:40:08.850Z,6.03
2023-05-25T07:43:11.916Z,7.03
2023-05-25T07:46:15.109Z,6.25
2023-05-25T07:49:18.079Z,5.60
2023-05-25T07:52:21.160Z,6.78
2023-05-25T07:55:24.026Z,7.60
2023-05-25T07:58:26.869Z,5.78
2023-05-25T08:01:29.713Z,7.68
2023-05-25T08:04:34.238Z,10.13
2023-05-25T08:07:38.634Z,6.75
2023-05-25T08:10:43.019Z,6.63
2023-05-25T08:13:46.014Z,6.72
2023-05-25T08:16:48.945Z,5.70
2023-05-25T08:19:51.873Z,7.88
2023-05-25T08:22:55.174Z,9.77
2023-05-25T08:25:57.935Z,8.85
2023-05-25T08:29:02.075Z,12.73
2023-05-25T08:32:05.267Z,14.75
2023-05-25T08:35:08.404Z,6.00
2023-05-25T08:38:11.408Z,7.60
2023-05-25T08:41:14.658Z,7.28
2023-05-25T08:44:17.814Z,8.85
2023-05-25T08:47:23.607Z,7.15
2023-05-25T08:50:27.957Z,6.53
2023-05-25T08:53:38.502Z,6.85
2023-05-25T08:56:55.976Z,5.95
2023-05-25T09:00:11.362Z,6.03
2023-05-25T09:03:20.944Z,6.00
2023-05-25T09:06:26.411Z,6.10
2023-05-25T09:09:31.861Z,12.10
2023-05-25T09:12:36.798Z,6.07
2023-05-25T09:15:39.678Z,5.47
2023-05-25T09:18:42.784Z,9.10
2023-05-25T09:21:46.109Z,6.28
2023-05-25T09:24:49.416Z,7.13
2023-05-25T09:27:52.278Z,6.10
2023-05-25T09:30:55.739Z,5.72
2023-05-25T09:34:00.727Z,5.13
2023-05-25T09:37:14.798Z,7.88
2023-05-25T09:40:17.905Z,5.15
2023-05-25T09:43:36.334Z,8.52
2023-05-25T09:46:45.605Z,10.52
2023-05-25T09:49:50.344Z,7.40
2023-05-25T09:53:00.063Z,8.20
2023-05-25T09:56:04.122Z,7.35
2023-05-25T09:59:07.574Z,8.38
2023-05-25T10:02:10.391Z,10.70
2023-05-25T10:05:13.533Z,10.40
2023-05-25T10:08:18.785Z,7.70
2023-05-25T10:11:23.060Z,7.88
2023-05-25T10:14:29.726Z,7.90
2023-05-25T10:17:36.823Z,8.93
2023-05-25T10:23:51.726Z,7.75
2023-05-25T10:26:55.311Z,9.88
2023-05-25T10:29:59.735Z,7.65
2023-05-25T10:33:02.951Z,7.50
2023-05-25T10:36:10.854Z,9.60
2023-05-25T10:39:14.669Z,8.65
2023-05-25T10:42:19.013Z,8.68
2023-05-25T10:45:23.100Z,8.27
2023-05-25T10:48:36.905Z,8.32
2023-05-25T10:51:41.296Z,10.93
2023-05-25T10:54:44.882Z,8.77
2023-05-25T10:57:47.695Z,10.63
2023-05-25T11:01:00.942Z,10.10
2023-05-25T11:04:07.069Z,9.23
2023-05-25T11:07:15.020Z,8.57
2023-05-25T11:10:17.849Z,9.05
2023-05-25T11:13:44.205Z,10.20
2023-05-25T11:17:16.717Z,12.05
2023-05-25T11:20:28.372Z,10.20
2023-05-25T11:23:31.964Z,9.48
2023-05-25T11:26:35.922Z,10.77
2023-05-25T11:29:40.325Z,8.82
2023-05-25T11:32:50.970Z,14.90
2023-05-25T11:35:55.596Z,12.02
2023-05-25T11:39:08.517Z,11.27
2023-05-25T11:42:15.826Z,10.23
2023-05-25T11:45:18.620Z,11.10
2023-05-25T11:48:21.527Z,9.82
2023-05-25T11:51:27.090Z,9.88
2023-05-25T11:54:31.313Z,10.20
2023-05-25T11:57:34.156Z,9.70
2023-05-25T12:00:37.281Z,11.32
2023-05-25T12:03:40.562Z,11.38
2023-05-25T12:06:43.574Z,11.05
2023-05-25T12:09:46.507Z,9.43
2023-05-25T12:12:53.672Z,8.73
2023-05-25T12:15:58.071Z,11.13
2023-05-25T12:19:02.366Z,8.65
2023-05-25T12:22:05.588Z,8.45
2023-05-25T12:25:42.412Z,12.82
2023-05-25T12:29:06.765Z,9.05
2023-05-25T12:32:09.647Z,9.00
2023-05-25T12:35:12.512Z,9.63
2023-05-25T12:38:22.136Z,11.27
2023-05-25T12:41:25.299Z,10.27
2023-05-25T12:44:35.360Z,8.45
2023-05-25T12:47:40.268Z,8.70
2023-05-25T12:50:58.918Z,9.27
2023-05-25T12:54:03.393Z,8.63
2023-05-25T12:57:07.123Z,9.82
2023-05-25T13:00:11.077Z,7.43
2023-05-25T13:03:14.098Z,8.07
2023-05-25T13:06:17.215Z,9.95
2023-05-25T13:09:20.766Z,10.30
2023-05-25T13:12:23.619Z,8.80
2023-05-25T13:15:27.406Z,9.15
2023-05-25T13:18:30.328Z,7.32
2023-05-25T13:21:33.265Z,9.45
2023-05-25T13:24:36.775Z,10.68
2023-05-25T13:27:44.783Z,8.75
2023-05-25T13:30:47.843Z,8.98
2023-05-25T13:33:50.978Z,9.48
2023-05-25T13:36:53.861Z,6.80
2023-05-25T13:39:58.914Z,9.57
2023-05-25T13:43:02.017Z,8.57
2023-05-25T13:46:05.077Z,9.10
2023-05-25T13:49:08.113Z,10.05
2023-05-25T13:52:11.736Z,8.70
2023-05-25T13:55:14.890Z,7.32
2023-05-25T13:58:17.876Z,8.35
2023-05-25T14:01:21.192Z,8.98
2023-05-25T14:04:24.202Z,7.93
2023-05-25T14:07:27.470Z,9.05
2023-05-25T14:10:31.137Z,7.82
2023-05-25T14:13:34.698Z,7.03
2023-05-25T14:16:38.868Z,7.10
2023-05-25T14:19:41.769Z,8.18
2023-05-25T14:22:44.529Z,7.80
2023-05-25T14:25:49.067Z,8.10
2023-05-25T14:28:51.969Z,8.52
2023-05-25T14:31:54.857Z,8.13
2023-05-25T14:34:57.639Z,9.02
2023-05-25T14:38:00.448Z,7.10
2023-05-25T14:41:03.297Z,10.23
2023-05-25T14:44:06.538Z,8.75
2023-05-25T14:47:11.643Z,7.85
2023-05-25T14:50:14.897Z,9.95
2023-05-25T14:53:17.997Z,8.45
2023-05-25T14:56:25.501Z,9.48
2023-05-25T14:59:28.273Z,7.35
2023-05-25T15:02:31.174Z,10.82
2023-05-25T15:05:34.290Z,7.25
2023-05-25T15:08:37.627Z,6.85
2023-05-25T15:11:40.461Z,8.70
2023-05-25T15:14:43.361Z,9.88
2023-05-25T15:17:46.258Z,7.20
2023-05-25T15:20:49.595Z,8.18
2023-05-25T15:23:52.657Z,8.27
2023-05-25T15:26:55.547Z,10.00
2023-05-25T15:29:58.218Z,8.00
2023-05-25T15:33:03.660Z,7.50
2023-05-25T15:36:09.248Z,9.52
2023-05-25T15:39:13.601Z,9.57
2023-05-25T15:42:16.503Z,11.43
2023-05-25T15:45:19.832Z,9.05
2023-05-25T15:48:25.429Z,9.38
2023-05-25T15:51:29.225Z,7.78
2023-05-25T15:54:32.018Z,7.30
2023-05-25T15:57:35.161Z,7.25
2023-05-25T16:00:38.038Z,8.05
2023-05-25T16:03:43.399Z,9.43
2023-05-25T16:06:49.015Z,7.65
2023-05-25T16:09:51.707Z,8.60
2023-05-25T16:12:54.962Z,8.45
2023-05-25T16:15:57.951Z,10.13
2023-05-25T16:19:01.143Z,8.95
2023-05-25T16:22:04.125Z,8.40
2023-05-25T16:25:07.675Z,7.97
2023-05-25T16:28:10.714Z,8.15
2023-05-25T16:31:13.923Z,9.25
2023-05-25T16:34:16.629Z,10.02
2023-05-25T16:37:19.572Z,10.80
2023-05-25T16:40:22.543Z,9.38
2023-05-25T16:43:27.244Z,10.85
2023-05-25T16:46:30.496Z,11.75
2023-05-25T16:49:33.617Z,10.05
2023-05-25T16:52:36.742Z,14.40
2023-05-25T16:55:40.989Z,15.27
2023-05-25T16:58:44.142Z,12.00
2023-05-25T17:01:47.085Z,11.63
2023-05-25T17:04:50.071Z,10.75
2023-05-25T17:07:56.345Z,11.35
2023-05-25T17:10:59.675Z,11.98
2023-05-25T17:14:02.604Z,13.45
2023-05-25T17:17:05.781Z,11.75
2023-05-25T17:20:09.127Z,15.15
2023-05-25T17:23:12.031Z,16.05
2023-05-25T17:26:15.420Z,11.95
2023-05-25T17:29:18.653Z,11.68
2023-05-25T17:32:21.745Z,13.13
2023-05-25T17:35:24.729Z,14.73
2023-05-25T17:38:28.008Z,11.32
2023-05-25T17:41:31.442Z,13.27
2023-05-25T17:44:34.681Z,15.57
2023-05-25T17:47:38.756Z,14.07
2023-05-25T17:50:41.949Z,14.75
2023-05-25T17:53:45.171Z,18.05
2023-05-25T17:56:48.085Z,15.00
2023-05-25T17:59:51.004Z,14.55
2023-05-25T18:02:54.051Z,14.45
2023-05-25T18:05:57.296Z,16.98
2023-05-25T18:09:00.374Z,17.65
2023-05-25T18:12:04.356Z,16.45
2023-05-25T18:15:08.725Z,15.18
2023-05-25T18:18:11.640Z,16.33
2023-05-25T18:21:14.876Z,17.38
2023-05-25T18:24:17.929Z,19.88
2023-05-25T18:27:21.973Z,18.45
2023-05-25T18:30:25.445Z,19.25
2023-05-25T18:33:28.211Z,19.55
2023-05-25T18:36:33.343Z,19.17
2023-05-25T18:39:36.351Z,17.88
2023-05-25T18:42:40.285Z,17.95
2023-05-25T18:45:43.321Z,18.48
2023-05-25T18:48:46.938Z,20.25
2023-05-25T18:51:50.402Z,21.05
2023-05-25T18:54:53.783Z,24.48
2023-05-25T18:57:57.281Z,19.13
2023-05-25T19:01:00.442Z,22.20
2023-05-25T19:04:03.990Z,26.05
2023-05-25T19:07:07.010Z,21.83
2023-05-25T19:10:10.910Z,21.75
2023-05-25T19:13:13.922Z,19.88
2023-05-25T19:16:16.856Z,19.60
2023-05-25T19:19:19.800Z,22.80
2023-05-25T19:22:22.634Z,22.58
2023-05-25T19:25:25.728Z,21.67
2023-05-25T19:28:28.746Z,24.10
2023-05-25T19:31:32.108Z,21.48
2023-05-25T19:34:36.287Z,24.05
2023-05-25T19:37:41.274Z,26.77
2023-05-25T19:40:44.360Z,24.25
2023-05-25T19:43:47.683Z,24.40
2023-05-25T19:46:50.777Z,24.67
2023-05-25T19:49:53.743Z,30.30
2023-05-25T19:52:59.113Z,22.90
2023-05-25T19:56:03.771Z,25.13
2023-05-25T19:59:07.025Z,26.80
2023-05-25T20:02:10.023Z,27.90
2023-05-25T20:05:12.891Z,25.40
2023-05-25T20:08:15.959Z,26.92
2023-05-25T20:11:18.849Z,23.08
2023-05-25T20:14:22.475Z,27.48
2023-05-25T20:17:25.630Z,31.20
2023-05-25T20:20:28.740Z,26.38
2023-05-25T20:23:31.894Z,29.25
2023-05-25T20:26:37.117Z,30.88
2023-05-25T20:29:40.130Z,25.92
2023-05-25T20:32:45.492Z,23.05
2023-05-25T20:35:48.571Z,24.63
2023-05-25T20:38:51.701Z,23.33
2023-05-25T20:41:54.779Z,25.27
2023-05-25T20:44:57.750Z,23.33
2023-05-25T20:48:02.380Z,23.92
2023-05-25T20:51:07.789Z,22.83
2023-05-25T20:54:10.985Z,21.55
2023-05-25T20:57:14.856Z,24.08
2023-05-25T21:00:18.035Z,22.50
2023-05-25T21:03:21.401Z,22.60
2023-05-25T21:06:24.574Z,20.80
2023-05-25T21:09:27.496Z,25.42
2023-05-25T21:12:30.463Z,24.27
2023-05-25T21:15:33.225Z,21.58
2023-05-25T21:18:36.287Z,24.83
2023-05-25T21:21:39.578Z,21.40
2023-05-25T21:24:42.344Z,23.55
2023-05-25T21:27:45.209Z,23.48
2023-05-25T21:30:48.061Z,23.75
2023-05-25T21:33:51.498Z,20.25
2023-05-25T21:36:54.502Z,20.98
2023-05-25T21:39:57.186Z,20.50
2023-05-25T21:43:00.166Z,20.65
2023-05-25T21:46:03.223Z,23.98
2023-05-25T21:49:06.501Z,17.60
2023-05-25T21:52:09.977Z,18.92
2023-05-25T21:55:13.122Z,20.80
2023-05-25T21:58:18.046Z,19.65
2023-05-25T22:01:23.790Z,19.10
2023-05-25T22:04:26.933Z,19.60
2023-05-25T22:07:29.799Z,18.42
2023-05-25T22:10:32.819Z,22.90
2023-05-25T22:13:35.687Z,21.25
2023-05-25T22:16:38.551Z,19.55
2023-05-25T22:19:43.155Z,18.55
2023-05-25T22:22:47.725Z,19.90
2023-05-25T22:25:50.955Z,18.13
2023-05-25T22:28:53.780Z,19.42
2023-05-25T22:31:56.506Z,19.38
2023-05-25T22:34:59.206Z,17.92
2023-05-25T22:38:02.211Z,17.75
2023-05-25T22:41:04.943Z,22.35
2023-05-25T22:44:07.696Z,17.88
2023-05-25T22:47:10.909Z,18.20
2023-05-25T22:50:13.866Z,19.10
2023-05-25T22:53:19.077Z,17.30
2023-05-25T22:56:23.101Z,19.27
2023-05-25T22:59:25.876Z,17.55
2023-05-25T23:02:28.742Z,18.45
2023-05-25T23:05:31.623Z,18.55
2023-05-25T23:08:34.357Z,17.50
2023-05-25T23:11:37.310Z,18.67
2023-05-25T23:14:41.005Z,16.60
2023-05-25T23:17:43.989Z,17.48
2023-05-25T23:20:46.705Z,20.15
2023-05-25T23:23:49.696Z,16.10
2023-05-25T23:26:52.503Z,17.75
2023-05-25T23:29:55.337Z,16.80
2023-05-25T23:32:58.257Z,16.25
2023-05-25T23:36:01.276Z,16.40
2023-05-25T23:39:04.494Z,15.63
2023-05-25T23:42:07.464Z,15.95
2023-05-25T23:45:10.800Z,17.55
2023-05-25T23:48:13.641Z,16.08
2023-05-25T23:51:16.702Z,15.02
2023-05-25T23:54:19.466Z,16.92
2023-05-25T23:57:22.188Z,18.77
